sensor_id;sensor_type;location;lat;lon;timestamp;P1;durP1;ratioP1;P2;durP2;ratioP2
36353;SDS011;22383;51.114;13.666;2023-08-24T00:02:03;6.18;;;4.53;;
36353;SDS011;22383;51.114;13.666;2023-08-24T00:04:30;6.40;;;4.25;;
36353;SDS011;22383;51.114;13.666;2023-08-24T00:06:57;5.65;;;4.47;;
36353;SDS011;22383;51.114;13.666;2023-08-24T00:09:26;5.85;;;4.60;;
36353;SDS011;22383;51.114;13.666;2023-08-24T00:11:53;7.22;;;4.43;;
36353;SDS011;22383;51.114;13.666;2023-08-24T00:14:20;6.85;;;4.47;;
36353;SDS011;22383;51.114;13.666;2023-08-24T00:16:48;6.07;;;4.50;;
36353;SDS011;22383;51.114;13.666;2023-08-24T00:19:16;5.93;;;4.20;;
36353;SDS011;22383;51.114;13.666;2023-08-24T00:21:43;8.98;;;4.40;;
36353;SDS011;22383;51.114;13.666;2023-08-24T00:24:10;6.22;;;4.40;;
36353;SDS011;22383;51.114;13.666;2023-08-24T00:26:37;6.45;;;4.38;;
36353;SDS011;22383;51.114;13.666;2023-08-24T00:29:04;8.23;;;5.30;;
36353;SDS011;22383;51.114;13.666;2023-08-24T00:31:32;8.52;;;4.82;;
36353;SDS011;22383;51.114;13.666;2023-08-24T00:33:59;12.43;;;5.50;;
36353;SDS011;22383;51.114;13.666;2023-08-24T00:36:26;9.68;;;5.47;;
36353;SDS011;22383;51.114;13.666;2023-08-24T00:38:54;10.63;;;5.47;;
36353;SDS011;22383;51.114;13.666;2023-08-24T00:41:21;9.52;;;5.90;;
36353;SDS011;22383;51.114;13.666;2023-08-24T00:43:51;8.57;;;5.38;;
36353;SDS011;22383;51.114;13.666;2023-08-24T00:46:18;7.40;;;5.53;;
36353;SDS011;22383;51.114;13.666;2023-08-24T00:48:46;6.72;;;5.13;;
36353;SDS011;22383;51.114;13.666;2023-08-24T00:51:14;7.70;;;4.78;;
36353;SDS011;22383;51.114;13.666;2023-08-24T00:53:41;10.90;;;4.90;;
36353;SDS011;22383;51.114;13.666;2023-08-24T00:56:08;10.43;;;5.05;;
36353;SDS011;22383;51.114;13.666;2023-08-24T00:58:36;11.30;;;7.00;;
36353;SDS011;22383;51.114;13.666;2023-08-24T01:01:05;8.88;;;5.70;;
36353;SDS011;22383;51.114;13.666;2023-08-24T01:03:33;8.20;;;6.03;;
36353;SDS011;22383;51.114;13.666;2023-08-24T01:06:00;9.05;;;6.55;;
36353;SDS011;22383;51.114;13.666;2023-08-24T01:08:27;11.70;;;7.00;;
36353;SDS011;22383;51.114;13.666;2023-08-24T01:13:52;20.42;;;7.55;;
36353;SDS011;22383;51.114;13.666;2023-08-24T01:16:31;9.13;;;6.78;;
36353;SDS011;22383;51.114;13.666;2023-08-24T01:19:00;10.13;;;7.07;;
36353;SDS011;22383;51.114;13.666;2023-08-24T01:21:33;9.48;;;7.25;;
36353;SDS011;22383;51.114;13.666;2023-08-24T01:24:14;9.73;;;7.30;;
36353;SDS011;22383;51.114;13.666;2023-08-24T01:26:51;11.52;;;6.88;;
36353;SDS011;22383;51.114;13.666;2023-08-24T01:29:21;10.45;;;7.28;;
36353;SDS011;22383;51.114;13.666;2023-08-24T01:31:49;11.13;;;6.85;;
36353;SDS011;22383;51.114;13.666;2023-08-24T01:34:16;13.15;;;7.43;;
36353;SDS011;22383;51.114;13.666;2023-08-24T01:36:43;13.32;;;6.82;;
36353;SDS011;22383;51.114;13.666;2023-08-24T01:39:14;9.07;;;6.82;;
36353;SDS011;22383;51.114;13.666;2023-08-24T01:41:55;14.05;;;7.90;;
36353;SDS011;22383;51.114;13.666;2023-08-24T01:44:27;16.17;;;7.78;;
36353;SDS011;22383;51.114;13.666;2023-08-24T01:46:58;15.93;;;9.18;;
36353;SDS011;22383;51.114;13.666;2023-08-24T01:49:29;14.90;;;9.25;;
36353;SDS011;22383;51.114;13.666;2023-08-24T01:51:56;13.35;;;8.55;;
36353;SDS011;22383;51.114;13.666;2023-08-24T01:54:25;11.32;;;8.23;;
36353;SDS011;22383;51.114;13.666;2023-08-24T01:56:54;11.02;;;8.05;;
36353;SDS011;22383;51.114;13.666;2023-08-24T01:59:21;9.98;;;8.43;;
36353;SDS011;22383;51.114;13.666;2023-08-24T02:01:48;11.25;;;7.82;;
36353;SDS011;22383;51.114;13.666;2023-08-24T02:04:16;10.95;;;8.30;;
36353;SDS011;22383;51.114;13.666;2023-08-24T02:06:43;11.63;;;8.35;;
36353;SDS011;22383;51.114;13.666;2023-08-24T02:09:11;11.20;;;8.10;;
36353;SDS011;22383;51.114;13.666;2023-08-24T02:11:38;13.00;;;8.77;;
36353;SDS011;22383;51.114;13.666;2023-08-24T02:14:05;12.32;;;9.13;;
36353;SDS011;22383;51.114;13.666;2023-08-24T02:16:36;10.68;;;8.48;;
36353;SDS011;22383;51.114;13.666;2023-08-24T02:19:05;12.00;;;8.73;;
36353;SDS011;22383;51.114;13.666;2023-08-24T02:21:34;9.20;;;8.05;;
36353;SDS011;22383;51.114;13.666;2023-08-24T02:24:03;11.40;;;8.05;;
36353;SDS011;22383;51.114;13.666;2023-08-24T02:26:31;14.43;;;9.93;;
36353;SDS011;22383;51.114;13.666;2023-08-24T02:31:26;14.20;;;8.88;;
36353;SDS011;22383;51.114;13.666;2023-08-24T02:33:55;10.68;;;8.75;;
36353;SDS011;22383;51.114;13.666;2023-08-24T02:36:22;10.15;;;8.02;;
36353;SDS011;22383;51.114;13.666;2023-08-24T02:38:49;10.82;;;8.77;;
36353;SDS011;22383;51.114;13.666;2023-08-24T02:41:17;9.20;;;8.30;;
36353;SDS011;22383;51.114;13.666;2023-08-24T02:43:45;11.70;;;9.07;;
36353;SDS011;22383;51.114;13.666;2023-08-24T02:46:13;10.10;;;9.05;;
36353;SDS011;22383;51.114;13.666;2023-08-24T02:48:40;15.20;;;9.30;;
36353;SDS011;22383;51.114;13.666;2023-08-24T02:51:08;12.93;;;8.80;;
36353;SDS011;22383;51.114;13.666;2023-08-24T02:53:36;13.43;;;9.43;;
36353;SDS011;22383;51.114;13.666;2023-08-24T02:56:03;12.80;;;9.15;;
36353;SDS011;22383;51.114;13.666;2023-08-24T02:58:30;16.63;;;8.88;;
36353;SDS011;22383;51.114;13.666;2023-08-24T03:00:58;14.00;;;8.73;;
36353;SDS011;22383;51.114;13.666;2023-08-24T03:03:25;13.18;;;9.23;;
36353;SDS011;22383;51.114;13.666;2023-08-24T03:05:56;12.63;;;8.40;;
36353;SDS011;22383;51.114;13.666;2023-08-24T03:08:23;9.98;;;8.93;;
36353;SDS011;22383;51.114;13.666;2023-08-24T03:10:51;12.52;;;8.82;;
36353;SDS011;22383;51.114;13.666;2023-08-24T03:13:19;13.65;;;9.32;;
36353;SDS011;22383;51.114;13.666;2023-08-24T03:15:47;9.50;;;8.07;;
36353;SDS011;22383;51.114;13.666;2023-08-24T03:18:15;13.70;;;9.32;;
36353;SDS011;22383;51.114;13.666;2023-08-24T03:20:44;10.00;;;8.95;;
36353;SDS011;22383;51.114;13.666;2023-08-24T03:23:14;12.55;;;8.55;;
36353;SDS011;22383;51.114;13.666;2023-08-24T03:25:42;10.73;;;8.77;;
36353;SDS011;22383;51.114;13.666;2023-08-24T03:28:09;18.88;;;9.05;;
36353;SDS011;22383;51.114;13.666;2023-08-24T03:30:38;12.25;;;8.82;;
36353;SDS011;22383;51.114;13.666;2023-08-24T03:33:07;9.77;;;8.77;;
36353;SDS011;22383;51.114;13.666;2023-08-24T03:35:35;13.48;;;8.82;;
36353;SDS011;22383;51.114;13.666;2023-08-24T03:38:02;12.23;;;8.45;;
36353;SDS011;22383;51.114;13.666;2023-08-24T03:40:30;11.57;;;8.13;;
36353;SDS011;22383;51.114;13.666;2023-08-24T03:42:58;10.27;;;8.00;;
36353;SDS011;22383;51.114;13.666;2023-08-24T03:45:25;11.57;;;8.55;;
36353;SDS011;22383;51.114;13.666;2023-08-24T03:47:53;9.40;;;8.20;;
36353;SDS011;22383;51.114;13.666;2023-08-24T03:50:21;12.00;;;8.48;;
36353;SDS011;22383;51.114;13.666;2023-08-24T03:52:50;14.40;;;8.40;;
36353;SDS011;22383;51.114;13.666;2023-08-24T03:55:18;9.93;;;8.35;;
36353;SDS011;22383;51.114;13.666;2023-08-24T03:57:45;10.88;;;8.75;;
36353;SDS011;22383;51.114;13.666;2023-08-24T04:00:12;11.70;;;8.90;;
36353;SDS011;22383;51.114;13.666;2023-08-24T04:02:41;11.13;;;8.82;;
36353;SDS011;22383;51.114;13.666;2023-08-24T04:05:14;9.98;;;8.68;;
36353;SDS011;22383;51.114;13.666;2023-08-24T04:07:41;9.70;;;8.45;;
36353;SDS011;22383;51.114;13.666;2023-08-24T04:10:09;12.13;;;8.23;;
36353;SDS011;22383;51.114;13.666;2023-08-24T04:12:36;11.93;;;7.95;;
36353;SDS011;22383;51.114;13.666;2023-08-24T04:15:03;13.70;;;8.27;;
36353;SDS011;22383;51.114;13.666;2023-08-24T04:17:31;8.15;;;7.32;;
36353;SDS011;22383;51.114;13.666;2023-08-24T04:19:59;12.00;;;8.05;;
36353;SDS011;22383;51.114;13.666;2023-08-24T04:22:27;15.15;;;8.10;;
36353;SDS011;22383;51.114;13.666;2023-08-24T04:24:54;14.23;;;8.80;;
36353;SDS011;22383;51.114;13.666;2023-08-24T04:27:21;13.82;;;8.55;;
36353;SDS011;22383;51.114;13.666;2023-08-24T04:29:48;13.10;;;9.18;;
36353;SDS011;22383;51.114;13.666;2023-08-24T04:32:16;11.27;;;8.57;;
36353;SDS011;22383;51.114;13.666;2023-08-24T04:34:43;12.15;;;8.73;;
36353;SDS011;22383;51.114;13.666;2023-08-24T04:37:10;11.57;;;8.60;;
36353;SDS011;22383;51.114;13.666;2023-08-24T04:39:38;12.45;;;9.38;;
36353;SDS011;22383;51.114;13.666;2023-08-24T04:42:05;12.05;;;9.82;;
36353;SDS011;22383;51.114;13.666;2023-08-24T04:44:33;13.13;;;8.65;;
36353;SDS011;22383;51.114;13.666;2023-08-24T04:47:00;10.60;;;8.57;;
36353;SDS011;22383;51.114;13.666;2023-08-24T04:49:27;14.70;;;9.32;;
36353;SDS011;22383;51.114;13.666;2023-08-24T04:51:56;9.73;;;8.73;;
36353;SDS011;22383;51.114;13.666;2023-08-24T04:54:23;11.70;;;8.32;;
36353;SDS011;22383;51.114;13.666;2023-08-24T04:56:51;10.07;;;8.95;;
36353;SDS011;22383;51.114;13.666;2023-08-24T04:59:18;12.40;;;9.00;;
36353;SDS011;22383;51.114;13.666;2023-08-24T05:01:45;11.02;;;8.63;;
36353;SDS011;22383;51.114;13.666;2023-08-24T05:04:12;12.82;;;8.77;;
36353;SDS011;22383;51.114;13.666;2023-08-24T05:06:39;14.52;;;9.05;;
36353;SDS011;22383;51.114;13.666;2023-08-24T05:09:06;11.80;;;9.20;;
36353;SDS011;22383;51.114;13.666;2023-08-24T05:11:35;12.15;;;8.60;;
36353;SDS011;22383;51.114;13.666;2023-08-24T05:14:02;14.23;;;9.13;;
36353;SDS011;22383;51.114;13.666;2023-08-24T05:16:29;12.75;;;8.68;;
36353;SDS011;22383;51.114;13.666;2023-08-24T05:18:57;15.40;;;9.77;;
36353;SDS011;22383;51.114;13.666;2023-08-24T05:21:24;13.43;;;9.38;;
36353;SDS011;22383;51.114;13.666;2023-08-24T05:23:51;11.05;;;9.65;;
36353;SDS011;22383;51.114;13.666;2023-08-24T05:26:18;12.80;;;9.55;;
36353;SDS011;22383;51.114;13.666;2023-08-24T05:28:49;14.20;;;9.80;;
36353;SDS011;22383;51.114;13.666;2023-08-24T05:31:17;13.48;;;10.10;;
36353;SDS011;22383;51.114;13.666;2023-08-24T05:33:47;12.80;;;9.18;;
36353;SDS011;22383;51.114;13.666;2023-08-24T05:36:14;13.10;;;8.95;;
36353;SDS011;22383;51.114;13.666;2023-08-24T05:38:42;11.93;;;9.68;;
36353;SDS011;22383;51.114;13.666;2023-08-24T05:41:31;16.15;;;9.23;;
36353;SDS011;22383;51.114;13.666;2023-08-24T05:43:58;14.00;;;8.65;;
36353;SDS011;22383;51.114;13.666;2023-08-24T05:46:26;15.15;;;8.30;;
36353;SDS011;22383;51.114;13.666;2023-08-24T05:48:53;13.85;;;8.38;;
36353;SDS011;22383;51.114;13.666;2023-08-24T05:51:20;12.18;;;8.75;;
36353;SDS011;22383;51.114;13.666;2023-08-24T05:53:47;11.13;;;8.20;;
36353;SDS011;22383;51.114;13.666;2023-08-24T05:56:14;12.43;;;8.88;;
36353;SDS011;22383;51.114;13.666;2023-08-24T05:58:42;9.48;;;7.78;;
36353;SDS011;22383;51.114;13.666;2023-08-24T06:01:09;12.13;;;8.57;;
36353;SDS011;22383;51.114;13.666;2023-08-24T06:03:36;10.75;;;7.82;;
36353;SDS011;22383;51.114;13.666;2023-08-24T06:06:03;11.80;;;7.82;;
36353;SDS011;22383;51.114;13.666;2023-08-24T06:10:58;14.68;;;8.43;;
36353;SDS011;22383;51.114;13.666;2023-08-24T06:13:26;12.25;;;8.32;;
36353;SDS011;22383;51.114;13.666;2023-08-24T06:15:53;14.07;;;8.52;;
36353;SDS011;22383;51.114;13.666;2023-08-24T06:18:21;12.73;;;8.07;;
36353;SDS011;22383;51.114;13.666;2023-08-24T06:20:49;9.50;;;7.57;;
36353;SDS011;22383;51.114;13.666;2023-08-24T06:23:19;16.15;;;7.82;;
36353;SDS011;22383;51.114;13.666;2023-08-24T06:25:48;12.23;;;7.50;;
36353;SDS011;22383;51.114;13.666;2023-08-24T06:28:15;11.20;;;7.22;;
36353;SDS011;22383;51.114;13.666;2023-08-24T06:30:42;10.48;;;7.90;;
36353;SDS011;22383;51.114;13.666;2023-08-24T06:33:10;8.30;;;7.43;;
36353;SDS011;22383;51.114;13.666;2023-08-24T06:35:38;8.52;;;7.43;;
36353;SDS011;22383;51.114;13.666;2023-08-24T06:38:05;12.85;;;7.38;;
36353;SDS011;22383;51.114;13.666;2023-08-24T06:40:32;10.90;;;7.70;;
36353;SDS011;22383;51.114;13.666;2023-08-24T06:43:00;10.88;;;7.20;;
36353;SDS011;22383;51.114;13.666;2023-08-24T06:45:27;11.10;;;7.55;;
36353;SDS011;22383;51.114;13.666;2023-08-24T06:47:54;13.93;;;7.68;;
36353;SDS011;22383;51.114;13.666;2023-08-24T06:50:21;9.52;;;6.82;;
36353;SDS011;22383;51.114;13.666;2023-08-24T06:52:48;13.30;;;7.07;;
36353;SDS011;22383;51.114;13.666;2023-08-24T06:55:16;10.43;;;6.95;;
36353;SDS011;22383;51.114;13.666;2023-08-24T06:57:47;14.27;;;8.65;;
36353;SDS011;22383;51.114;13.666;2023-08-24T07:00:15;9.40;;;6.55;;
36353;SDS011;22383;51.114;13.666;2023-08-24T07:02:43;8.82;;;6.75;;
36353;SDS011;22383;51.114;13.666;2023-08-24T07:05:10;8.55;;;6.45;;
36353;SDS011;22383;51.114;13.666;2023-08-24T07:07:39;10.88;;;7.00;;
36353;SDS011;22383;51.114;13.666;2023-08-24T07:10:10;8.25;;;6.65;;
36353;SDS011;22383;51.114;13.666;2023-08-24T07:12:37;10.95;;;6.72;;
36353;SDS011;22383;51.114;13.666;2023-08-24T07:15:07;11.77;;;6.57;;
36353;SDS011;22383;51.114;13.666;2023-08-24T07:20:03;7.97;;;6.53;;
36353;SDS011;22383;51.114;13.666;2023-08-24T07:22:35;11.50;;;6.47;;
36353;SDS011;22383;51.114;13.666;2023-08-24T07:25:03;12.40;;;6.75;;
36353;SDS011;22383;51.114;13.666;2023-08-24T07:27:32;6.90;;;5.45;;
36353;SDS011;22383;51.114;13.666;2023-08-24T07:30:01;7.50;;;5.28;;
36353;SDS011;22383;51.114;13.666;2023-08-24T07:32:48;12.82;;;5.20;;
36353;SDS011;22383;51.114;13.666;2023-08-24T07:35:15;7.78;;;5.10;;
36353;SDS011;22383;51.114;13.666;2023-08-24T07:37:43;8.40;;;4.88;;
36353;SDS011;22383;51.114;13.666;2023-08-24T07:40:10;13.02;;;5.22;;
36353;SDS011;22383;51.114;13.666;2023-08-24T07:42:45;6.63;;;4.65;;
36353;SDS011;22383;51.114;13.666;2023-08-24T07:45:14;7.32;;;5.50;;
36353;SDS011;22383;51.114;13.666;2023-08-24T07:47:41;11.15;;;5.88;;
36353;SDS011;22383;51.114;13.666;2023-08-24T07:50:09;6.53;;;4.70;;
36353;SDS011;22383;51.114;13.666;2023-08-24T07:52:40;10.48;;;4.85;;
36353;SDS011;22383;51.114;13.666;2023-08-24T07:55:07;10.50;;;4.95;;
36353;SDS011;22383;51.114;13.666;2023-08-24T07:57:35;10.18;;;4.97;;
36353;SDS011;22383;51.114;13.666;2023-08-24T08:00:04;6.47;;;5.03;;
36353;SDS011;22383;51.114;13.666;2023-08-24T08:02:41;7.70;;;4.20;;
36353;SDS011;22383;51.114;13.666;2023-08-24T08:05:08;8.60;;;4.53;;
36353;SDS011;22383;51.114;13.666;2023-08-24T08:07:37;7.50;;;4.13;;
36353;SDS011;22383;51.114;13.666;2023-08-24T08:10:05;7.28;;;4.00;;
36353;SDS011;22383;51.114;13.666;2023-08-24T08:12:34;8.70;;;5.07;;
36353;SDS011;22383;51.114;13.666;2023-08-24T08:15:01;7.85;;;3.65;;
36353;SDS011;22383;51.114;13.666;2023-08-24T08:17:29;7.97;;;4.32;;
36353;SDS011;22383;51.114;13.666;2023-08-24T08:19:58;7.03;;;3.92;;
36353;SDS011;22383;51.114;13.666;2023-08-24T08:22:25;6.25;;;4.40;;
36353;SDS011;22383;51.114;13.666;2023-08-24T08:24:52;7.18;;;4.15;;
36353;SDS011;22383;51.114;13.666;2023-08-24T08:27:25;7.97;;;4.07;;
36353;SDS011;22383;51.114;13.666;2023-08-24T08:29:53;4.68;;;3.55;;
36353;SDS011;22383;51.114;13.666;2023-08-24T08:32:20;8.57;;;3.83;;
36353;SDS011;22383;51.114;13.666;2023-08-24T08:34:47;8.10;;;3.67;;
36353;SDS011;22383;51.114;13.666;2023-08-24T08:37:14;7.50;;;3.40;;
36353;SDS011;22383;51.114;13.666;2023-08-24T08:39:42;6.22;;;3.67;;
36353;SDS011;22383;51.114;13.666;2023-08-24T08:42:13;4.57;;;3.25;;
36353;SDS011;22383;51.114;13.666;2023-08-24T08:44:41;10.55;;;4.00;;
36353;SDS011;22383;51.114;13.666;2023-08-24T08:47:10;6.68;;;3.95;;
36353;SDS011;22383;51.114;13.666;2023-08-24T08:49:39;6.07;;;3.53;;
36353;SDS011;22383;51.114;13.666;2023-08-24T08:52:06;4.63;;;3.30;;
36353;SDS011;22383;51.114;13.666;2023-08-24T08:57:01;3.83;;;2.83;;
36353;SDS011;22383;51.114;13.666;2023-08-24T08:59:29;4.93;;;2.78;;
36353;SDS011;22383;51.114;13.666;2023-08-24T09:01:57;4.60;;;2.65;;
36353;SDS011;22383;51.114;13.666;2023-08-24T09:04:25;4.38;;;3.10;;
36353;SDS011;22383;51.114;13.666;2023-08-24T09:06:53;6.35;;;3.10;;
36353;SDS011;22383;51.114;13.666;2023-08-24T09:09:21;7.13;;;3.00;;
36353;SDS011;22383;51.114;13.666;2023-08-24T09:11:49;4.35;;;3.10;;
36353;SDS011;22383;51.114;13.666;2023-08-24T09:14:18;5.70;;;3.78;;
36353;SDS011;22383;51.114;13.666;2023-08-24T09:16:45;7.50;;;3.55;;
36353;SDS011;22383;51.114;13.666;2023-08-24T09:19:12;5.30;;;3.33;;
36353;SDS011;22383;51.114;13.666;2023-08-24T09:21:40;6.93;;;3.05;;
36353;SDS011;22383;51.114;13.666;2023-08-24T09:24:09;4.22;;;3.05;;
36353;SDS011;22383;51.114;13.666;2023-08-24T09:26:37;5.40;;;2.72;;
36353;SDS011;22383;51.114;13.666;2023-08-24T09:29:13;3.65;;;2.65;;
36353;SDS011;22383;51.114;13.666;2023-08-24T09:31:42;4.50;;;2.70;;
36353;SDS011;22383;51.114;13.666;2023-08-24T09:34:12;5.72;;;2.70;;
36353;SDS011;22383;51.114;13.666;2023-08-24T09:36:40;5.32;;;2.47;;
36353;SDS011;22383;51.114;13.666;2023-08-24T09:39:07;4.65;;;2.63;;
36353;SDS011;22383;51.114;13.666;2023-08-24T09:41:38;4.57;;;2.45;;
36353;SDS011;22383;51.114;13.666;2023-08-24T09:44:08;6.03;;;2.90;;
36353;SDS011;22383;51.114;13.666;2023-08-24T09:46:36;4.25;;;2.85;;
36353;SDS011;22383;51.114;13.666;2023-08-24T09:49:06;4.47;;;3.17;;
36353;SDS011;22383;51.114;13.666;2023-08-24T09:51:36;6.65;;;3.05;;
36353;SDS011;22383;51.114;13.666;2023-08-24T09:54:08;4.20;;;3.10;;
36353;SDS011;22383;51.114;13.666;2023-08-24T09:56:40;7.28;;;3.28;;
36353;SDS011;22383;51.114;13.666;2023-08-24T09:59:12;3.58;;;3.17;;
36353;SDS011;22383;51.114;13.666;2023-08-24T10:01:46;5.85;;;2.90;;
36353;SDS011;22383;51.114;13.666;2023-08-24T10:04:21;6.18;;;3.38;;
36353;SDS011;22383;51.114;13.666;2023-08-24T10:06:51;4.57;;;2.70;;
36353;SDS011;22383;51.114;13.666;2023-08-24T10:09:22;5.18;;;2.80;;
36353;SDS011;22383;51.114;13.666;2023-08-24T10:11:55;3.63;;;2.85;;
36353;SDS011;22383;51.114;13.666;2023-08-24T10:17:34;3.95;;;2.72;;
36353;SDS011;22383;51.114;13.666;2023-08-24T10:20:03;6.55;;;2.97;;
36353;SDS011;22383;51.114;13.666;2023-08-24T10:22:33;6.43;;;3.25;;
36353;SDS011;22383;51.114;13.666;2023-08-24T10:25:04;8.30;;;3.42;;
36353;SDS011;22383;51.114;13.666;2023-08-24T10:27:33;7.03;;;2.95;;
36353;SDS011;22383;51.114;13.666;2023-08-24T10:30:01;3.85;;;2.45;;
36353;SDS011;22383;51.114;13.666;2023-08-24T10:34:56;6.50;;;3.15;;
36353;SDS011;22383;51.114;13.666;2023-08-24T10:37:27;7.50;;;3.17;;
36353;SDS011;22383;51.114;13.666;2023-08-24T10:39:54;4.10;;;2.97;;
36353;SDS011;22383;51.114;13.666;2023-08-24T10:42:22;3.30;;;2.90;;
36353;SDS011;22383;51.114;13.666;2023-08-24T10:44:49;6.85;;;3.20;;
36353;SDS011;22383;51.114;13.666;2023-08-24T10:47:19;7.82;;;3.53;;
36353;SDS011;22383;51.114;13.666;2023-08-24T10:52:24;3.80;;;2.85;;
36353;SDS011;22383;51.114;13.666;2023-08-24T10:54:56;6.53;;;2.90;;
36353;SDS011;22383;51.114;13.666;2023-08-24T10:57:24;4.00;;;3.03;;
36353;SDS011;22383;51.114;13.666;2023-08-24T10:59:58;8.13;;;3.20;;
36353;SDS011;22383;51.114;13.666;2023-08-24T11:02:26;5.32;;;3.05;;
36353;SDS011;22383;51.114;13.666;2023-08-24T11:07:32;7.15;;;3.58;;
36353;SDS011;22383;51.114;13.666;2023-08-24T11:09:59;5.60;;;3.20;;
36353;SDS011;22383;51.114;13.666;2023-08-24T11:15:34;7.05;;;4.15;;
36353;SDS011;22383;51.114;13.666;2023-08-24T11:18:11;4.30;;;2.80;;
36353;SDS011;22383;51.114;13.666;2023-08-24T11:20:39;9.85;;;3.30;;
36353;SDS011;22383;51.114;13.666;2023-08-24T11:23:09;4.32;;;2.80;;
36353;SDS011;22383;51.114;13.666;2023-08-24T11:25:36;5.15;;;3.40;;
36353;SDS011;22383;51.114;13.666;2023-08-24T11:28:04;4.97;;;3.05;;
36353;SDS011;22383;51.114;13.666;2023-08-24T11:30:32;16.60;;;3.05;;
36353;SDS011;22383;51.114;13.666;2023-08-24T11:33:00;7.00;;;2.80;;
36353;SDS011;22383;51.114;13.666;2023-08-24T11:35:28;9.50;;;2.75;;
36353;SDS011;22383;51.114;13.666;2023-08-24T11:37:55;5.43;;;2.80;;
36353;SDS011;22383;51.114;13.666;2023-08-24T11:40:23;7.60;;;2.83;;
36353;SDS011;22383;51.114;13.666;2023-08-24T11:42:56;9.55;;;3.22;;
36353;SDS011;22383;51.114;13.666;2023-08-24T11:45:24;7.22;;;2.95;;
36353;SDS011;22383;51.114;13.666;2023-08-24T11:48:00;8.90;;;3.20;;
36353;SDS011;22383;51.114;13.666;2023-08-24T11:50:28;4.97;;;3.00;;
36353;SDS011;22383;51.114;13.666;2023-08-24T11:52:55;9.35;;;3.13;;
36353;SDS011;22383;51.114;13.666;2023-08-24T11:55:23;5.90;;;3.20;;
36353;SDS011;22383;51.114;13.666;2023-08-24T12:00:20;4.22;;;2.67;;
36353;SDS011;22383;51.114;13.666;2023-08-24T12:02:48;6.18;;;2.80;;
36353;SDS011;22383;51.114;13.666;2023-08-24T12:07:53;4.97;;;2.85;;
36353;SDS011;22383;51.114;13.666;2023-08-24T12:10:21;3.72;;;2.78;;
36353;SDS011;22383;51.114;13.666;2023-08-24T12:12:49;5.30;;;2.95;;
36353;SDS011;22383;51.114;13.666;2023-08-24T12:15:17;6.22;;;2.72;;
36353;SDS011;22383;51.114;13.666;2023-08-24T12:17:47;7.65;;;2.60;;
36353;SDS011;22383;51.114;13.666;2023-08-24T12:20:22;5.28;;;3.97;;
36353;SDS011;22383;51.114;13.666;2023-08-24T12:22:53;6.05;;;3.13;;
36353;SDS011;22383;51.114;13.666;2023-08-24T12:25:21;4.50;;;2.80;;
36353;SDS011;22383;51.114;13.666;2023-08-24T12:27:54;7.15;;;2.88;;
36353;SDS011;22383;51.114;13.666;2023-08-24T12:30:43;5.25;;;2.83;;
36353;SDS011;22383;51.114;13.666;2023-08-24T12:35:54;4.57;;;2.42;;
36353;SDS011;22383;51.114;13.666;2023-08-24T12:38:22;6.22;;;2.85;;
36353;SDS011;22383;51.114;13.666;2023-08-24T12:40:51;6.65;;;2.67;;
36353;SDS011;22383;51.114;13.666;2023-08-24T12:43:19;7.43;;;3.25;;
36353;SDS011;22383;51.114;13.666;2023-08-24T12:48:13;5.10;;;2.67;;
36353;SDS011;22383;51.114;13.666;2023-08-24T12:50:40;6.07;;;2.97;;
36353;SDS011;22383;51.114;13.666;2023-08-24T12:58:03;6.28;;;2.95;;
36353;SDS011;22383;51.114;13.666;2023-08-24T13:02:58;4.43;;;3.00;;
36353;SDS011;22383;51.114;13.666;2023-08-24T13:07:52;3.30;;;2.70;;
36353;SDS011;22383;51.114;13.666;2023-08-24T13:10:20;5.78;;;3.03;;
36353;SDS011;22383;51.114;13.666;2023-08-24T13:12:47;7.50;;;3.13;;
36353;SDS011;22383;51.114;13.666;2023-08-24T13:15:14;4.45;;;2.60;;
36353;SDS011;22383;51.114;13.666;2023-08-24T13:17:42;3.35;;;2.70;;
36353;SDS011;22383;51.114;13.666;2023-08-24T13:20:09;4.85;;;3.28;;
36353;SDS011;22383;51.114;13.666;2023-08-24T13:22:37;3.60;;;2.63;;
36353;SDS011;22383;51.114;13.666;2023-08-24T13:25:04;8.10;;;3.22;;
36353;SDS011;22383;51.114;13.666;2023-08-24T13:30:01;4.90;;;2.33;;
36353;SDS011;22383;51.114;13.666;2023-08-24T13:32:29;5.68;;;2.70;;
36353;SDS011;22383;51.114;13.666;2023-08-24T13:34:56;8.48;;;2.70;;
36353;SDS011;22383;51.114;13.666;2023-08-24T13:37:24;5.70;;;3.10;;
36353;SDS011;22383;51.114;13.666;2023-08-24T13:39:51;4.25;;;2.65;;
36353;SDS011;22383;51.114;13.666;2023-08-24T13:42:18;3.60;;;2.42;;
36353;SDS011;22383;51.114;13.666;2023-08-24T13:44:45;5.05;;;2.83;;
36353;SDS011;22383;51.114;13.666;2023-08-24T13:47:14;4.50;;;2.70;;
36353;SDS011;22383;51.114;13.666;2023-08-24T13:49:41;7.47;;;3.00;;
36353;SDS011;22383;51.114;13.666;2023-08-24T13:52:08;9.13;;;2.80;;
36353;SDS011;22383;51.114;13.666;2023-08-24T13:54:35;4.20;;;2.42;;
36353;SDS011;22383;51.114;13.666;2023-08-24T13:57:02;4.72;;;2.92;;
36353;SDS011;22383;51.114;13.666;2023-08-24T13:59:30;4.65;;;3.00;;
36353;SDS011;22383;51.114;13.666;2023-08-24T14:01:57;4.40;;;3.00;;
36353;SDS011;22383;51.114;13.666;2023-08-24T14:04:24;6.15;;;3.08;;
36353;SDS011;22383;51.114;13.666;2023-08-24T14:06:51;6.00;;;3.25;;
36353;SDS011;22383;51.114;13.666;2023-08-24T14:09:19;5.28;;;3.65;;
36353;SDS011;22383;51.114;13.666;2023-08-24T14:11:46;6.35;;;3.38;;
36353;SDS011;22383;51.114;13.666;2023-08-24T14:14:14;4.30;;;2.80;;
36353;SDS011;22383;51.114;13.666;2023-08-24T14:16:41;4.68;;;3.30;;
36353;SDS011;22383;51.114;13.666;2023-08-24T14:19:09;5.63;;;2.95;;
36353;SDS011;22383;51.114;13.666;2023-08-24T14:21:36;4.72;;;3.22;;
36353;SDS011;22383;51.114;13.666;2023-08-24T14:24:11;4.82;;;3.22;;
36353;SDS011;22383;51.114;13.666;2023-08-24T14:26:39;6.10;;;3.38;;
36353;SDS011;22383;51.114;13.666;2023-08-24T14:29:12;4.03;;;3.00;;
36353;SDS011;22383;51.114;13.666;2023-08-24T14:31:40;4.65;;;3.50;;
36353;SDS011;22383;51.114;13.666;2023-08-24T14:36:35;9.75;;;3.42;;
36353;SDS011;22383;51.114;13.666;2023-08-24T14:39:02;3.72;;;3.08;;
36353;SDS011;22383;51.114;13.666;2023-08-24T14:43:59;8.05;;;3.30;;
36353;SDS011;22383;51.114;13.666;2023-08-24T14:46:26;6.70;;;3.80;;
36353;SDS011;22383;51.114;13.666;2023-08-24T14:48:53;7.05;;;3.53;;
36353;SDS011;22383;51.114;13.666;2023-08-24T14:51:21;6.50;;;3.63;;
36353;SDS011;22383;51.114;13.666;2023-08-24T14:53:48;5.15;;;3.40;;
36353;SDS011;22383;51.114;13.666;2023-08-24T14:56:15;7.05;;;3.75;;
36353;SDS011;22383;51.114;13.666;2023-08-24T14:58:42;4.97;;;3.40;;
36353;SDS011;22383;51.114;13.666;2023-08-24T15:01:09;5.10;;;3.50;;
36353;SDS011;22383;51.114;13.666;2023-08-24T15:03:37;5.03;;;3.92;;
36353;SDS011;22383;51.114;13.666;2023-08-24T15:06:04;5.25;;;3.80;;
36353;SDS011;22383;51.114;13.666;2023-08-24T15:08:33;7.82;;;3.60;;
36353;SDS011;22383;51.114;13.666;2023-08-24T15:11:01;7.55;;;3.47;;
36353;SDS011;22383;51.114;13.666;2023-08-24T15:13:31;5.47;;;3.70;;
36353;SDS011;22383;51.114;13.666;2023-08-24T15:15:58;7.97;;;3.35;;
36353;SDS011;22383;51.114;13.666;2023-08-24T15:18:26;3.13;;;2.83;;
36353;SDS011;22383;51.114;13.666;2023-08-24T15:20:53;8.30;;;3.70;;
36353;SDS011;22383;51.114;13.666;2023-08-24T15:23:27;8.52;;;3.72;;
36353;SDS011;22383;51.114;13.666;2023-08-24T15:25:57;6.47;;;3.20;;
36353;SDS011;22383;51.114;13.666;2023-08-24T15:28:25;4.97;;;3.28;;
36353;SDS011;22383;51.114;13.666;2023-08-24T15:30:53;5.20;;;3.45;;